Time;durP1;ratioP1;P1;durP2;ratioP2;P2;SDS_P1;SDS_P2;PMS_P1;PMS_P2;Temp;Humidity;BMP_temperature;BMP_pressure;BME280_temperature;BME280_humidity;BME280_pressure;Samples;Min_cycle;Max_cycle;Signal;HPM_P1;HPM_P2
2023/08/06 00:02:02;;;;;;;0.20;0.20;;;;;;;;;;5121631;27;20083;-62
2023/08/06 00:04:27;;;;;;;0.10;0.10;;;;;;;;;;5120784;28;20055;-62
2023/08/06 00:06:53;;;;;;;0.20;0.20;;;;;;;;;;5127369;28;20051;-61
2023/08/06 00:09:18;;;;;;;0.20;0.20;;;;;;;;;;5113028;28;20052;-61
2023/08/06 00:11:44;;;;;;;0.15;0.15;;;;;;;;;;5110821;28;20051;-62
2023/08/06 00:14:09;;;;;;;0.20;0.20;;;;;;;;;;5115697;28;20067;-61
2023/08/06 00:16:35;;;;;;;0.20;0.20;;;;;;;;;;5107943;28;20048;-61
2023/08/06 00:19:00;;;;;;;0.20;0.20;;;;;;;;;;5107813;28;20052;-62
2023/08/06 00:21:26;;;;;;;0.20;0.20;;;;;;;;;;5108362;28;20492;-62
2023/08/06 00:23:52;;;;;;;0.20;0.20;;;;;;;;;;5110214;28;20424;-62
2023/08/06 00:26:17;;;;;;;0.20;0.20;;;;;;;;;;5108655;28;20480;-62
2023/08/06 00:28:43;;;;;;;0.20;0.20;;;;;;;;;;5107769;28;20181;-62
2023/08/06 00:31:08;;;;;;;0.20;0.20;;;;;;;;;;5107458;28;20055;-61
2023/08/06 00:33:34;;;;;;;0.20;0.20;;;;;;;;;;5109579;28;20048;-62
2023/08/06 00:35:59;;;;;;;0.20;0.20;;;;;;;;;;5107970;28;20116;-61
2023/08/06 00:38:25;;;;;;;0.20;0.20;;;;;;;;;;5113744;28;20051;-62
2023/08/06 00:40:50;;;;;;;0.10;0.10;;;;;;;;;;5112822;28;20055;-62
2023/08/06 00:43:16;;;;;;;0.10;0.10;;;;;;;;;;5107962;28;20051;-62
2023/08/06 00:45:41;;;;;;;0.20;0.20;;;;;;;;;;5108183;28;20055;-61
2023/08/06 00:48:07;;;;;;;0.20;0.20;;;;;;;;;;5107314;28;20130;-61
2023/08/06 00:50:32;;;;;;;0.20;0.20;;;;;;;;;;5107311;28;20075;-62
2023/08/06 00:52:59;;;;;;;0.20;0.20;;;;;;;;;;5107492;28;20047;-61
2023/08/06 00:55:24;;;;;;;0.10;0.10;;;;;;;;;;5108040;28;20066;-62
2023/08/06 00:57:52;;;;;;;0.20;0.20;;;;;;;;;;5120517;28;20130;-62
2023/08/06 01:00:19;;;;;;;0.20;0.20;;;;;;;;;;5112517;28;20051;-62
2023/08/06 01:02:44;;;;;;;0.20;0.20;;;;;;;;;;5113177;28;20500;-62
2023/08/06 01:05:10;;;;;;;0.20;0.20;;;;;;;;;;5109326;28;20144;-62
2023/08/06 01:07:55;;;;;;;0.10;0.10;;;;;;;;;;5111040;28;20057;-62
2023/08/06 01:10:41;;;;;;;0.10;0.10;;;;;;;;;;5102735;28;20047;-62
2023/08/06 01:13:26;;;;;;;0.10;0.10;;;;;;;;;;5095737;28;20512;-61
2023/08/06 01:15:56;;;;;;;0.20;0.20;;;;;;;;;;5121951;28;20039;-62
2023/08/06 01:18:22;;;;;;;0.20;0.20;;;;;;;;;;5129388;28;20051;-62
2023/08/06 01:20:49;;;;;;;0.20;0.20;;;;;;;;;;5109855;28;20048;-61
2023/08/06 01:23:15;;;;;;;0.20;0.20;;;;;;;;;;5111407;28;20055;-62
2023/08/06 01:25:55;;;;;;;0.20;0.20;;;;;;;;;;5113318;28;20062;-62
2023/08/06 01:28:27;;;;;;;0.20;0.20;;;;;;;;;;5130888;28;20051;-61
2023/08/06 01:30:53;;;;;;;0.20;0.20;;;;;;;;;;5110832;28;20059;-61
2023/08/06 01:33:21;;;;;;;0.20;0.20;;;;;;;;;;5111296;28;20036;-61
2023/08/06 01:35:48;;;;;;;0.10;0.10;;;;;;;;;;5111054;28;20075;-62
2023/08/06 01:38:13;;;;;;;0.20;0.20;;;;;;;;;;5112006;28;20044;-62
2023/08/06 01:40:39;;;;;;;0.20;0.20;;;;;;;;;;5121827;28;20051;-62
2023/08/06 01:43:05;;;;;;;0.15;0.15;;;;;;;;;;5130794;28;20610;-62
2023/08/06 01:45:30;;;;;;;0.20;0.20;;;;;;;;;;5131252;28;20086;-62
2023/08/06 01:47:56;;;;;;;0.10;0.10;;;;;;;;;;5131423;28;20112;-62
2023/08/06 01:50:21;;;;;;;0.10;0.10;;;;;;;;;;5113079;28;20472;-62
2023/08/06 01:52:47;;;;;;;0.20;0.20;;;;;;;;;;5110342;28;20240;-61
2023/08/06 01:55:12;;;;;;;0.20;0.20;;;;;;;;;;5111043;28;20048;-62
2023/08/06 01:57:38;;;;;;;0.10;0.10;;;;;;;;;;5110157;28;20514;-62
2023/08/06 02:00:04;;;;;;;0.20;0.20;;;;;;;;;;5119315;28;20259;-61
2023/08/06 02:02:29;;;;;;;0.20;0.20;;;;;;;;;;5110386;28;20047;-61
2023/08/06 02:04:55;;;;;;;0.20;0.20;;;;;;;;;;5117723;28;20051;-62
2023/08/06 02:07:20;;;;;;;0.10;0.10;;;;;;;;;;5130686;28;20461;-48
2023/08/06 02:09:46;;;;;;;0.20;0.20;;;;;;;;;;5117414;27;20480;-47
2023/08/06 02:12:12;;;;;;;0.10;0.10;;;;;;;;;;5111101;28;20083;-62
2023/08/06 02:14:37;;;;;;;0.10;0.10;;;;;;;;;;5109475;28;20487;-61
2023/08/06 02:17:03;;;;;;;0.20;0.20;;;;;;;;;;5115804;28;20092;-62
2023/08/06 02:19:28;;;;;;;0.20;0.20;;;;;;;;;;5119842;28;20092;-61
2023/08/06 02:21:54;;;;;;;0.13;0.13;;;;;;;;;;5109624;28;20047;-62
2023/08/06 02:24:20;;;;;;;0.10;0.10;;;;;;;;;;5112348;28;20087;-61
2023/08/06 02:26:46;;;;;;;0.10;0.10;;;;;;;;;;5109539;28;20060;-62
2023/08/06 02:29:12;;;;;;;0.10;0.10;;;;;;;;;;5109451;28;20047;-62
2023/08/06 02:31:37;;;;;;;0.20;0.20;;;;;;;;;;5109077;28;20113;-61
2023/08/06 02:34:03;;;;;;;0.13;0.13;;;;;;;;;;5108934;28;20445;-61
2023/08/06 02:36:29;;;;;;;0.20;0.20;;;;;;;;;;5110501;28;20080;-62
2023/08/06 02:38:55;;;;;;;0.10;0.10;;;;;;;;;;5111103;28;20070;-62
2023/08/06 02:41:20;;;;;;;0.10;0.10;;;;;;;;;;5112729;28;20461;-62
2023/08/06 02:43:46;;;;;;;0.17;0.17;;;;;;;;;;5125325;28;20047;-62
2023/08/06 02:46:11;;;;;;;0.10;0.10;;;;;;;;;;5129798;28;20047;-62
2023/08/06 02:48:37;;;;;;;0.20;0.20;;;;;;;;;;5129042;28;20039;-62
2023/08/06 02:51:02;;;;;;;0.20;0.20;;;;;;;;;;5108684;28;20093;-62
2023/08/06 02:53:28;;;;;;;0.15;0.15;;;;;;;;;;5109425;28;20052;-62
2023/08/06 02:55:54;;;;;;;0.10;0.10;;;;;;;;;;5110130;28;20048;-62
2023/08/06 02:58:22;;;;;;;0.20;0.20;;;;;;;;;;5108882;28;20073;-61
2023/08/06 03:01:05;;;;;;;0.20;0.20;;;;;;;;;;5112150;27;20557;-61
2023/08/06 03:03:31;;;;;;;0.10;0.10;;;;;;;;;;5108980;28;20048;-61
2023/08/06 03:05:56;;;;;;;0.10;0.10;;;;;;;;;;5112056;28;20415;-61
2023/08/06 03:08:22;;;;;;;0.20;0.20;;;;;;;;;;5128745;28;20051;-61
2023/08/06 03:10:48;;;;;;;0.20;0.20;;;;;;;;;;5110122;28;20047;-62
2023/08/06 03:13:14;;;;;;;0.20;0.20;;;;;;;;;;5110561;28;20385;-62
2023/08/06 03:15:39;;;;;;;0.13;0.13;;;;;;;;;;5129173;28;20558;-61
2023/08/06 03:18:05;;;;;;;0.20;0.20;;;;;;;;;;5129388;28;20054;-62
2023/08/06 03:20:32;;;;;;;0.10;0.10;;;;;;;;;;5109724;28;20062;-62
2023/08/06 03:22:58;;;;;;;0.20;0.20;;;;;;;;;;5109161;28;20070;-62
2023/08/06 03:25:23;;;;;;;0.10;0.10;;;;;;;;;;5109310;28;20434;-61
2023/08/06 03:27:49;;;;;;;0.20;0.20;;;;;;;;;;5109352;28;20081;-60
2023/08/06 03:30:14;;;;;;;0.20;0.20;;;;;;;;;;5112113;28;20070;-62
2023/08/06 03:32:40;;;;;;;0.20;0.20;;;;;;;;;;5108122;28;20052;-61
2023/08/06 03:35:05;;;;;;;0.17;0.17;;;;;;;;;;5106853;28;20502;-61
2023/08/06 03:37:31;;;;;;;0.10;0.10;;;;;;;;;;5100469;28;20047;-62
2023/08/06 03:39:56;;;;;;;0.20;0.20;;;;;;;;;;5125707;28;20043;-62
2023/08/06 03:42:22;;;;;;;0.20;0.20;;;;;;;;;;5111051;28;20108;-61
2023/08/06 03:44:47;;;;;;;0.10;0.10;;;;;;;;;;5112395;28;20514;-61
2023/08/06 03:47:13;;;;;;;0.20;0.20;;;;;;;;;;5129966;28;20047;-62
2023/08/06 03:49:39;;;;;;;0.20;0.20;;;;;;;;;;5121636;28;20120;-61
2023/08/06 03:52:05;;;;;;;0.10;0.10;;;;;;;;;;5109006;28;20469;-62
2023/08/06 03:54:30;;;;;;;0.10;0.10;;;;;;;;;;5108754;28;20547;-62
2023/08/06 03:56:56;;;;;;;0.20;0.20;;;;;;;;;;5108662;28;20131;-62
2023/08/06 03:59:21;;;;;;;0.20;0.20;;;;;;;;;;5108497;28;20541;-61
2023/08/06 04:01:47;;;;;;;0.20;0.20;;;;;;;;;;5107467;28;20476;-61
2023/08/06 04:04:13;;;;;;;0.20;0.20;;;;;;;;;;5112802;28;20051;-61
2023/08/06 04:06:38;;;;;;;0.20;0.20;;;;;;;;;;5106548;28;20459;-62
2023/08/06 04:09:04;;;;;;;0.20;0.20;;;;;;;;;;5115095;28;20076;-62
2023/08/06 04:11:29;;;;;;;0.20;0.20;;;;;;;;;;5107530;28;20120;-61
2023/08/06 04:13:55;;;;;;;0.10;0.10;;;;;;;;;;5108216;28;20104;-62
2023/08/06 04:16:21;;;;;;;0.20;0.20;;;;;;;;;;5107873;28;20138;-62
2023/08/06 04:18:46;;;;;;;0.10;0.10;;;;;;;;;;5107697;28;20476;-62
2023/08/06 04:21:12;;;;;;;0.10;0.10;;;;;;;;;;5108426;28;20056;-62
2023/08/06 04:23:37;;;;;;;0.20;0.20;;;;;;;;;;5107351;28;20079;-61
2023/08/06 04:26:03;;;;;;;0.20;0.20;;;;;;;;;;5108594;28;20044;-62
2023/08/06 04:28:29;;;;;;;0.20;0.20;;;;;;;;;;5115129;28;20510;-62
2023/08/06 04:30:55;;;;;;;0.20;0.20;;;;;;;;;;5108753;28;20418;-61
2023/08/06 04:33:20;;;;;;;0.10;0.10;;;;;;;;;;5127940;28;20053;-62
2023/08/06 04:35:46;;;;;;;0.20;0.20;;;;;;;;;;5118919;28;20054;-62
2023/08/06 04:38:11;;;;;;;0.20;0.20;;;;;;;;;;5107298;28;20135;-62
2023/08/06 04:40:37;;;;;;;0.10;0.10;;;;;;;;;;5106148;28;20095;-62
2023/08/06 04:43:03;;;;;;;0.20;0.20;;;;;;;;;;5106944;28;20483;-62
2023/08/06 04:45:28;;;;;;;0.10;0.10;;;;;;;;;;5107205;28;20072;-62
2023/08/06 04:47:54;;;;;;;0.20;0.20;;;;;;;;;;5107242;28;20167;-62
2023/08/06 04:50:20;;;;;;;0.20;0.20;;;;;;;;;;5106901;28;20134;-62
2023/08/06 04:52:45;;;;;;;0.20;0.20;;;;;;;;;;5107193;28;20179;-62
2023/08/06 04:55:11;;;;;;;1.00;0.50;;;;;;;;;;5106956;28;20467;-62
2023/08/06 04:57:36;;;;;;;0.20;0.20;;;;;;;;;;5107358;28;20465;-62
2023/08/06 05:00:02;;;;;;;0.20;0.20;;;;;;;;;;5107125;28;20055;-61
2023/08/06 05:02:28;;;;;;;0.10;0.10;;;;;;;;;;5106966;28;20051;-61
2023/08/06 05:04:53;;;;;;;0.10;0.10;;;;;;;;;;5107000;28;20051;-61
2023/08/06 05:07:19;;;;;;;0.20;0.20;;;;;;;;;;5106711;28;20073;-62
2023/08/06 05:09:45;;;;;;;0.17;0.17;;;;;;;;;;5106943;28;20566;-62
2023/08/06 05:12:10;;;;;;;0.13;0.13;;;;;;;;;;5106224;28;20048;-62
2023/08/06 05:14:36;;;;;;;0.20;0.20;;;;;;;;;;5107366;28;20054;-62
2023/08/06 05:17:04;;;;;;;0.10;0.10;;;;;;;;;;5106479;28;20074;-62
2023/08/06 05:19:29;;;;;;;0.10;0.10;;;;;;;;;;5106358;28;20108;-62
2023/08/06 05:21:55;;;;;;;0.10;0.10;;;;;;;;;;5105783;28;20063;-62
2023/08/06 05:24:20;;;;;;;0.10;0.10;;;;;;;;;;5107624;28;20453;-62
2023/08/06 05:26:48;;;;;;;0.10;0.10;;;;;;;;;;5107402;28;20047;-61
2023/08/06 05:29:14;;;;;;;0.20;0.20;;;;;;;;;;5106511;28;20416;-61
2023/08/06 05:31:39;;;;;;;0.20;0.20;;;;;;;;;;5106781;28;20051;-61
2023/08/06 05:34:05;;;;;;;0.20;0.20;;;;;;;;;;5105984;27;20066;-62
2023/08/06 05:36:30;;;;;;;0.10;0.10;;;;;;;;;;5112230;28;20076;-61
2023/08/06 05:38:56;;;;;;;0.15;0.15;;;;;;;;;;5126633;28;20058;-62
2023/08/06 05:41:21;;;;;;;0.10;0.10;;;;;;;;;;5108501;28;20048;-62
2023/08/06 05:43:47;;;;;;;0.25;0.25;;;;;;;;;;5108338;28;20515;-61
2023/08/06 05:46:12;;;;;;;0.10;0.10;;;;;;;;;;5110165;28;20491;-62
2023/08/06 05:48:38;;;;;;;0.20;0.20;;;;;;;;;;5110507;28;20039;-62
2023/08/06 05:51:04;;;;;;;0.17;0.17;;;;;;;;;;5110807;28;20460;-61
2023/08/06 05:53:29;;;;;;;0.10;0.10;;;;;;;;;;5110270;28;20054;-62
2023/08/06 05:55:55;;;;;;;0.10;0.10;;;;;;;;;;5110955;28;20062;-61
2023/08/06 05:58:20;;;;;;;0.20;0.20;;;;;;;;;;5110802;28;20052;-62
2023/08/06 06:00:46;;;;;;;0.20;0.20;;;;;;;;;;5109795;28;20048;-61
2023/08/06 06:03:11;;;;;;;0.15;0.15;;;;;;;;;;5110578;28;20052;-61
2023/08/06 06:05:38;;;;;;;0.20;0.20;;;;;;;;;;5110265;28;20422;-61
2023/08/06 06:08:03;;;;;;;0.10;0.10;;;;;;;;;;5110588;28;20050;-61
2023/08/06 06:10:29;;;;;;;0.20;0.20;;;;;;;;;;5109931;28;20047;-61
2023/08/06 06:12:55;;;;;;;0.20;0.20;;;;;;;;;;5109416;28;20051;-62
2023/08/06 06:15:20;;;;;;;0.10;0.10;;;;;;;;;;5110650;28;20047;-62
2023/08/06 06:17:46;;;;;;;0.10;0.10;;;;;;;;;;5110863;28;20515;-61
2023/08/06 06:20:11;;;;;;;0.10;0.10;;;;;;;;;;5109527;28;20490;-62
2023/08/06 06:22:37;;;;;;;0.20;0.20;;;;;;;;;;5109899;28;20083;-61
2023/08/06 06:25:03;;;;;;;0.17;0.17;;;;;;;;;;5110123;28;20050;-61
2023/08/06 06:27:28;;;;;;;0.20;0.20;;;;;;;;;;5110746;28;20052;-62
2023/08/06 06:29:54;;;;;;;0.10;0.10;;;;;;;;;;5109558;28;20138;-62
2023/08/06 06:32:20;;;;;;;0.10;0.10;;;;;;;;;;5109735;28;20047;-61
2023/08/06 06:34:46;;;;;;;0.17;0.17;;;;;;;;;;5108520;27;20051;-62
2023/08/06 06:37:11;;;;;;;0.10;0.10;;;;;;;;;;5110453;28;20049;-62
2023/08/06 06:39:37;;;;;;;0.10;0.10;;;;;;;;;;5109674;28;20112;-61
2023/08/06 06:42:02;;;;;;;0.20;0.20;;;;;;;;;;5108927;28;20131;-62
2023/08/06 06:44:28;;;;;;;0.15;0.15;;;;;;;;;;5108921;28;20127;-62
2023/08/06 06:46:53;;;;;;;0.10;0.10;;;;;;;;;;5109497;28;20060;-62
2023/08/06 06:49:19;;;;;;;0.15;0.15;;;;;;;;;;5109752;28;20097;-62
2023/08/06 06:51:44;;;;;;;0.10;0.10;;;;;;;;;;5109180;28;20067;-62
2023/08/06 06:54:10;;;;;;;0.13;0.13;;;;;;;;;;5109260;28;20051;-62
2023/08/06 06:56:35;;;;;;;0.10;0.10;;;;;;;;;;5110277;28;20407;-62
2023/08/06 06:59:01;;;;;;;0.17;0.17;;;;;;;;;;5109396;28;20457;-61
2023/08/06 07:01:26;;;;;;;0.20;0.20;;;;;;;;;;5108655;28;20043;-62
2023/08/06 07:03:52;;;;;;;0.10;0.10;;;;;;;;;;5109588;28;20104;-61
2023/08/06 07:06:18;;;;;;;0.10;0.10;;;;;;;;;;5108675;28;20043;-61
2023/08/06 07:08:44;;;;;;;0.10;0.10;;;;;;;;;;5108448;28;20039;-62
2023/08/06 07:11:09;;;;;;;0.20;0.20;;;;;;;;;;5108492;28;20067;-62
2023/08/06 07:13:35;;;;;;;0.10;0.10;;;;;;;;;;5108069;28;20043;-62
2023/08/06 07:16:01;;;;;;;0.10;0.10;;;;;;;;;;5108670;28;20051;-61
2023/08/06 07:18:27;;;;;;;0.20;0.20;;;;;;;;;;5108698;28;20051;-61
2023/08/06 07:20:53;;;;;;;0.20;0.20;;;;;;;;;;5105243;28;20043;-61
2023/08/06 07:23:20;;;;;;;0.17;0.17;;;;;;;;;;5108490;28;20055;-62
2023/08/06 07:25:46;;;;;;;0.20;0.20;;;;;;;;;;5108838;28;20044;-62
2023/08/06 07:28:12;;;;;;;0.13;0.13;;;;;;;;;;5108750;28;20048;-61
2023/08/06 07:30:38;;;;;;;0.10;0.10;;;;;;;;;;5108498;28;20047;-61
2023/08/06 07:33:04;;;;;;;0.20;0.20;;;;;;;;;;5105714;28;20130;-60
2023/08/06 07:35:29;;;;;;;0.10;0.10;;;;;;;;;;5113541;28;20077;-61
2023/08/06 07:37:55;;;;;;;0.20;0.20;;;;;;;;;;5108141;28;20048;-61
2023/08/06 07:40:20;;;;;;;0.20;0.20;;;;;;;;;;5107249;28;20036;-62
2023/08/06 07:42:46;;;;;;;0.10;0.10;;;;;;;;;;5108296;28;20062;-62
2023/08/06 07:45:11;;;;;;;0.20;0.20;;;;;;;;;;5107760;28;20709;-62
2023/08/06 07:47:37;;;;;;;0.10;0.10;;;;;;;;;;5108102;28;20077;-62
2023/08/06 07:50:03;;;;;;;0.20;0.20;;;;;;;;;;5107303;28;20043;-62
2023/08/06 07:52:28;;;;;;;0.20;0.20;;;;;;;;;;5107575;28;20480;-62
2023/08/06 07:54:54;;;;;;;0.10;0.10;;;;;;;;;;5108811;28;20043;-62
2023/08/06 07:57:19;;;;;;;0.10;0.10;;;;;;;;;;5108359;28;20090;-62
2023/08/06 07:59:45;;;;;;;0.10;0.10;;;;;;;;;;5108835;28;20487;-62
2023/08/06 08:02:10;;;;;;;0.10;0.10;;;;;;;;;;5107440;28;20039;-61
2023/08/06 08:04:36;;;;;;;0.20;0.20;;;;;;;;;;5108699;28;20055;-61
2023/08/06 08:07:02;;;;;;;0.10;0.10;;;;;;;;;;5107071;28;20063;-61
2023/08/06 08:09:27;;;;;;;0.10;0.10;;;;;;;;;;5108474;28;20055;-62
2023/08/06 08:11:53;;;;;;;0.13;0.13;;;;;;;;;;5107197;28;20055;-61
2023/08/06 08:14:19;;;;;;;0.20;0.20;;;;;;;;;;5107495;28;20476;-61
2023/08/06 08:16:44;;;;;;;0.10;0.10;;;;;;;;;;5108531;28;20486;-61
2023/08/06 08:19:10;;;;;;;0.20;0.20;;;;;;;;;;5108279;28;20104;-61
2023/08/06 08:21:36;;;;;;;0.20;0.20;;;;;;;;;;5106603;28;20625;-61
2023/08/06 08:24:01;;;;;;;0.10;0.10;;;;;;;;;;5107982;28;20058;-61
2023/08/06 08:26:28;;;;;;;0.13;0.13;;;;;;;;;;5108908;28;20427;-61
2023/08/06 08:28:53;;;;;;;0.20;0.20;;;;;;;;;;5107827;28;20051;-61
2023/08/06 08:31:19;;;;;;;0.15;0.15;;;;;;;;;;5107094;28;20047;-61
2023/08/06 08:33:45;;;;;;;0.20;0.20;;;;;;;;;;5107153;28;20481;-61
2023/08/06 08:36:10;;;;;;;0.20;0.20;;;;;;;;;;5107012;28;20048;-57
2023/08/06 08:38:36;;;;;;;0.20;0.20;;;;;;;;;;5107330;28;20393;-61
2023/08/06 08:41:01;;;;;;;0.20;0.20;;;;;;;;;;5107447;28;20479;-61
2023/08/06 08:43:27;;;;;;;0.10;0.10;;;;;;;;;;5107267;28;20270;-61
2023/08/06 08:45:55;;;;;;;0.20;0.20;;;;;;;;;;5108534;28;20043;-61
2023/08/06 08:48:21;;;;;;;0.10;0.10;;;;;;;;;;5107220;28;20051;-61
2023/08/06 08:50:48;;;;;;;0.10;0.10;;;;;;;;;;5105646;28;20058;-61
2023/08/06 08:53:14;;;;;;;0.13;0.13;;;;;;;;;;5107185;28;20043;-61
2023/08/06 08:55:40;;;;;;;0.10;0.10;;;;;;;;;;5107181;28;20192;-61
2023/08/06 08:58:06;;;;;;;0.10;0.10;;;;;;;;;;5107383;28;20067;-62
2023/08/06 09:00:31;;;;;;;0.20;0.20;;;;;;;;;;5107111;28;20055;-62
2023/08/06 09:02:58;;;;;;;0.20;0.20;;;;;;;;;;5106897;28;20047;-61
2023/08/06 09:05:26;;;;;;;0.20;0.20;;;;;;;;;;5107537;28;20138;-61
2023/08/06 09:07:52;;;;;;;0.10;0.10;;;;;;;;;;5107536;28;20043;-61
2023/08/06 09:10:19;;;;;;;0.20;0.20;;;;;;;;;;5106718;28;20047;-61
2023/08/06 09:12:44;;;;;;;0.20;0.20;;;;;;;;;;5107416;28;20100;-61
2023/08/06 09:15:10;;;;;;;0.20;0.20;;;;;;;;;;5107081;28;20071;-61
2023/08/06 09:17:36;;;;;;;0.10;0.10;;;;;;;;;;5107522;28;20051;-61
2023/08/06 09:20:10;;;;;;;0.20;0.20;;;;;;;;;;5109108;28;20448;-61
2023/08/06 09:22:36;;;;;;;0.20;0.20;;;;;;;;;;5090071;28;20063;-61
2023/08/06 09:25:03;;;;;;;0.20;0.20;;;;;;;;;;5106524;28;20044;-61
2023/08/06 09:27:29;;;;;;;0.10;0.10;;;;;;;;;;5110881;28;20043;-61
2023/08/06 09:29:54;;;;;;;0.20;0.20;;;;;;;;;;5110493;28;20066;-62
2023/08/06 09:32:20;;;;;;;0.20;0.20;;;;;;;;;;5111036;28;20052;-61
2023/08/06 09:34:45;;;;;;;0.20;0.20;;;;;;;;;;5117905;28;20451;-61
2023/08/06 09:37:11;;;;;;;0.20;0.20;;;;;;;;;;5114200;28;20077;-61
2023/08/06 09:39:38;;;;;;;0.20;0.20;;;;;;;;;;5110977;28;20523;-61
2023/08/06 09:42:05;;;;;;;0.20;0.20;;;;;;;;;;5106882;28;20051;-61
2023/08/06 09:44:31;;;;;;;0.10;0.10;;;;;;;;;;5110740;28;20043;-61
2023/08/06 09:46:58;;;;;;;0.20;0.20;;;;;;;;;;5110629;28;20055;-61
2023/08/06 09:49:26;;;;;;;0.17;0.17;;;;;;;;;;5110394;28;20097;-61
2023/08/06 09:51:55;;;;;;;0.10;0.10;;;;;;;;;;5107974;28;20044;-61
2023/08/06 09:54:23;;;;;;;0.15;0.15;;;;;;;;;;5108832;28;20052;-61
2023/08/06 09:56:53;;;;;;;0.20;0.20;;;;;;;;;;5109330;28;20040;-61
2023/08/06 09:59:19;;;;;;;0.20;0.20;;;;;;;;;;5109928;28;20130;-61
2023/08/06 10:01:45;;;;;;;0.20;0.20;;;;;;;;;;5109462;28;20043;-61
2023/08/06 10:04:12;;;;;;;0.20;0.20;;;;;;;;;;5109347;28;20058;-61
2023/08/06 10:06:49;;;;;;;0.20;0.20;;;;;;;;;;5109444;28;20047;-61
2023/08/06 10:09:15;;;;;;;0.10;0.10;;;;;;;;;;5109829;28;20058;-61
2023/08/06 10:11:42;;;;;;;0.10;0.10;;;;;;;;;;5108855;28;20450;-61
2023/08/06 10:14:12;;;;;;;0.20;0.20;;;;;;;;;;5110004;28;20063;-61
2023/08/06 10:16:40;;;;;;;0.10;0.10;;;;;;;;;;5109474;28;20048;-63
2023/08/06 10:19:07;;;;;;;0.10;0.10;;;;;;;;;;5109198;28;20185;-61
2023/08/06 10:21:32;;;;;;;0.10;0.10;;;;;;;;;;5109209;28;20498;-61
2023/08/06 10:23:58;;;;;;;0.20;0.20;;;;;;;;;;5109013;28;20039;-60
2023/08/06 10:26:26;;;;;;;0.20;0.20;;;;;;;;;;5109632;28;20043;-60
2023/08/06 10:28:52;;;;;;;0.20;0.20;;;;;;;;;;5109032;28;20051;-61
2023/08/06 10:31:18;;;;;;;0.10;0.10;;;;;;;;;;5107199;28;20040;-61
2023/08/06 10:33:45;;;;;;;0.10;0.10;;;;;;;;;;5109534;27;20043;-61
2023/08/06 10:36:10;;;;;;;0.20;0.20;;;;;;;;;;5108748;28;20051;-61
2023/08/06 10:38:43;;;;;;;0.20;0.20;;;;;;;;;;5109152;28;20058;-61
2023/08/06 10:41:14;;;;;;;0.10;0.10;;;;;;;;;;5108206;28;20056;-61
2023/08/06 10:43:41;;;;;;;0.20;0.20;;;;;;;;;;5108838;28;20051;-61
2023/08/06 10:46:10;;;;;;;0.20;0.20;;;;;;;;;;5109838;28;20044;-61
2023/08/06 10:48:40;;;;;;;0.20;0.20;;;;;;;;;;5109770;28;20055;-61
2023/08/06 10:51:07;;;;;;;0.10;0.10;;;;;;;;;;5108500;28;20071;-61
2023/08/06 10:53:33;;;;;;;0.10;0.10;;;;;;;;;;5109007;28;20163;-61
2023/08/06 10:56:00;;;;;;;0.10;0.10;;;;;;;;;;5108750;28;20514;-62
2023/08/06 10:58:26;;;;;;;0.20;0.20;;;;;;;;;;5108575;28;20070;-61
2023/08/06 11:00:51;;;;;;;0.10;0.10;;;;;;;;;;5108424;28;20419;-61
2023/08/06 11:03:17;;;;;;;0.10;0.10;;;;;;;;;;5108196;28;20055;-61
2023/08/06 11:05:50;;;;;;;0.20;0.20;;;;;;;;;;5108957;28;20134;-61
2023/08/06 11:08:23;;;;;;;0.20;0.20;;;;;;;;;;5109175;28;20047;-61
2023/08/06 11:10:49;;;;;;;0.20;0.20;;;;;;;;;;5109128;28;20055;-61
2023/08/06 11:13:29;;;;;;;0.20;0.20;;;;;;;;;;5109109;28;20052;-61
2023/08/06 11:15:55;;;;;;;0.20;0.20;;;;;;;;;;5109927;28;20040;-60
2023/08/06 11:18:21;;;;;;;0.10;0.10;;;;;;;;;;5109403;28;20134;-61
2023/08/06 11:20:46;;;;;;;0.20;0.20;;;;;;;;;;5108547;28;20096;-61
2023/08/06 11:23:13;;;;;;;0.20;0.20;;;;;;;;;;5109369;28;20044;-61
2023/08/06 11:25:44;;;;;;;0.10;0.10;;;;;;;;;;5109485;28;20082;-61
2023/08/06 11:28:09;;;;;;;0.10;0.10;;;;;;;;;;5108588;28;20047;-61
2023/08/06 11:30:35;;;;;;;0.20;0.20;;;;;;;;;;5108583;28;20059;-61
2023/08/06 11:33:00;;;;;;;0.10;0.10;;;;;;;;;;5112482;28;20146;-61
2023/08/06 11:35:26;;;;;;;0.20;0.20;;;;;;;;;;5108268;28;20230;-61
2023/08/06 11:37:51;;;;;;;0.10;0.10;;;;;;;;;;5108048;28;20051;-61
2023/08/06 11:40:17;;;;;;;0.20;0.20;;;;;;;;;;5107437;28;20131;-61
2023/08/06 11:42:43;;;;;;;0.13;0.13;;;;;;;;;;5106758;28;20043;-61
2023/08/06 11:45:09;;;;;;;0.20;0.20;;;;;;;;;;5108774;28;20132;-61
2023/08/06 11:47:38;;;;;;;0.20;0.20;;;;;;;;;;5108948;28;20040;-62
2023/08/06 11:50:04;;;;;;;0.20;0.20;;;;;;;;;;5108604;28;20048;-61
2023/08/06 11:52:31;;;;;;;0.10;0.10;;;;;;;;;;5108539;28;20051;-61
2023/08/06 11:55:06;;;;;;;0.10;0.10;;;;;;;;;;5108372;28;20074;-61
2023/08/06 11:57:34;;;;;;;0.10;0.10;;;;;;;;;;5107158;28;20051;-61
2023/08/06 12:00:04;;;;;;;0.20;0.20;;;;;;;;;;5108030;28;20063;-61
2023/08/06 12:02:34;;;;;;;0.20;0.20;;;;;;;;;;5108572;28;20104;-61
2023/08/06 12:07:42;;;;;;;0.20;0.20;;;;;;;;;;5188033;27;20152;-59
2023/08/06 12:10:08;;;;;;;0.10;0.10;;;;;;;;;;5166527;27;20090;-58
2023/08/06 12:12:35;;;;;;;0.20;0.20;;;;;;;;;;5166577;27;20053;-59
2023/08/06 12:15:01;;;;;;;0.20;0.20;;;;;;;;;;5166830;27;20389;-59
2023/08/06 12:17:26;;;;;;;0.10;0.10;;;;;;;;;;5166722;27;20057;-59
2023/08/06 12:19:52;;;;;;;0.10;0.10;;;;;;;;;;5166455;27;20453;-58
2023/08/06 12:22:18;;;;;;;0.10;0.10;;;;;;;;;;5166141;27;20414;-58
2023/08/06 12:24:44;;;;;;;0.10;0.10;;;;;;;;;;5166253;27;20051;-58
2023/08/06 12:27:10;;;;;;;0.20;0.20;;;;;;;;;;5167031;27;20499;-59
2023/08/06 12:29:37;;;;;;;0.20;0.20;;;;;;;;;;5166010;27;20042;-58
2023/08/06 12:32:03;;;;;;;0.10;0.10;;;;;;;;;;5166041;27;20099;-58
2023/08/06 12:34:29;;;;;;;0.20;0.20;;;;;;;;;;5165824;27;20042;-59
2023/08/06 12:37:08;;;;;;;0.20;0.20;;;;;;;;;;5166057;27;20422;-59
2023/08/06 12:39:34;;;;;;;0.15;0.15;;;;;;;;;;5165652;27;20046;-58
2023/08/06 12:42:01;;;;;;;0.17;0.17;;;;;;;;;;5157048;27;20046;-59
2023/08/06 12:44:35;;;;;;;0.13;0.13;;;;;;;;;;5148299;27;20090;-59
2023/08/06 12:47:00;;;;;;;0.10;0.10;;;;;;;;;;5165922;27;20223;-58
2023/08/06 12:49:26;;;;;;;0.10;0.10;;;;;;;;;;5166482;27;20047;-58
2023/08/06 12:51:52;;;;;;;0.17;0.17;;;;;;;;;;5165697;27;20062;-58
2023/08/06 12:54:19;;;;;;;0.10;0.10;;;;;;;;;;5165306;27;20061;-58
2023/08/06 12:56:45;;;;;;;0.20;0.20;;;;;;;;;;5166040;27;20121;-59
2023/08/06 12:59:11;;;;;;;0.10;0.10;;;;;;;;;;5164734;27;20047;-59
2023/08/06 13:01:37;;;;;;;0.20;0.20;;;;;;;;;;5153056;27;20405;-59
2023/08/06 13:04:03;;;;;;;0.20;0.20;;;;;;;;;;5145104;27;20085;-58
2023/08/06 13:06:46;;;;;;;0.10;0.10;;;;;;;;;;5144469;27;20043;-59
2023/08/06 13:09:12;;;;;;;0.20;0.20;;;;;;;;;;5145319;27;20047;-61
2023/08/06 13:11:39;;;;;;;0.20;0.20;;;;;;;;;;5144153;27;20499;-61
2023/08/06 13:14:05;;;;;;;0.10;0.10;;;;;;;;;;5144173;27;20450;-61
2023/08/06 13:16:31;;;;;;;0.10;0.10;;;;;;;;;;5145557;27;20050;-61
2023/08/06 13:18:57;;;;;;;0.20;0.20;;;;;;;;;;5131747;27;20435;-61
2023/08/06 13:21:22;;;;;;;0.20;0.20;;;;;;;;;;5130588;28;20347;-61
2023/08/06 13:23:48;;;;;;;0.10;0.10;;;;;;;;;;5130635;28;20039;-61
2023/08/06 13:26:15;;;;;;;0.20;0.20;;;;;;;;;;5130263;28;20043;-61
2023/08/06 13:28:41;;;;;;;0.10;0.10;;;;;;;;;;5130787;28;20471;-61
2023/08/06 13:31:07;;;;;;;0.20;0.20;;;;;;;;;;5126183;27;20498;-59
2023/08/06 13:33:32;;;;;;;0.20;0.20;;;;;;;;;;5130235;28;20047;-62
2023/08/06 13:35:58;;;;;;;0.10;0.10;;;;;;;;;;5130818;28;20411;-61
2023/08/06 13:38:23;;;;;;;0.10;0.10;;;;;;;;;;5128575;28;20071;-61
2023/08/06 13:40:49;;;;;;;0.20;0.20;;;;;;;;;;5129590;28;20051;-61
2023/08/06 13:43:16;;;;;;;0.20;0.20;;;;;;;;;;5129392;28;20138;-61
2023/08/06 13:45:42;;;;;;;0.10;0.10;;;;;;;;;;5129841;27;20103;-61
2023/08/06 13:48:08;;;;;;;0.20;0.20;;;;;;;;;;5130143;28;20051;-62
2023/08/06 13:50:34;;;;;;;0.10;0.10;;;;;;;;;;5123520;27;20039;-61
2023/08/06 13:52:59;;;;;;;0.20;0.20;;;;;;;;;;5125224;28;20046;-61
2023/08/06 13:55:26;;;;;;;0.20;0.20;;;;;;;;;;5130400;28;20468;-61
2023/08/06 13:57:52;;;;;;;0.10;0.10;;;;;;;;;;5129430;28;20180;-61
2023/08/06 14:00:17;;;;;;;0.20;0.20;;;;;;;;;;5129189;28;20475;-59
2023/08/06 14:02:44;;;;;;;0.20;0.20;;;;;;;;;;5129465;28;20131;-62
2023/08/06 14:05:09;;;;;;;0.20;0.20;;;;;;;;;;5130008;27;20066;-61
2023/08/06 14:07:35;;;;;;;0.20;0.20;;;;;;;;;;5130261;28;20499;-61
2023/08/06 14:10:01;;;;;;;0.17;0.17;;;;;;;;;;5128137;27;20046;-61
2023/08/06 14:12:26;;;;;;;0.20;0.20;;;;;;;;;;5119084;28;20077;-61
2023/08/06 14:14:52;;;;;;;0.20;0.20;;;;;;;;;;5129675;28;20479;-61
2023/08/06 14:17:17;;;;;;;0.20;0.20;;;;;;;;;;5130159;28;20384;-61
2023/08/06 14:19:43;;;;;;;0.10;0.10;;;;;;;;;;5129713;28;20433;-61
2023/08/06 14:22:08;;;;;;;0.10;0.10;;;;;;;;;;5116689;28;20047;-61
2023/08/06 14:24:34;;;;;;;0.15;0.15;;;;;;;;;;5129557;28;20092;-61
2023/08/06 14:26:59;;;;;;;0.20;0.20;;;;;;;;;;5129437;28;20440;-61
2023/08/06 14:29:25;;;;;;;0.20;0.20;;;;;;;;;;5129503;27;20051;-61
2023/08/06 14:31:51;;;;;;;0.20;0.20;;;;;;;;;;5120521;27;20046;-61
2023/08/06 14:34:16;;;;;;;0.20;0.20;;;;;;;;;;5128564;28;20598;-61
2023/08/06 14:36:42;;;;;;;0.20;0.20;;;;;;;;;;5129852;28;20035;-61
2023/08/06 14:39:07;;;;;;;0.20;0.20;;;;;;;;;;5128491;28;20047;-61
2023/08/06 14:41:33;;;;;;;0.20;0.20;;;;;;;;;;5115181;28;20052;-62